createdAt,value
2018-10-21T00:00:26.973Z,10.39
2018-10-21T00:01:26.951Z,10.49
2018-10-21T00:02:26.979Z,10.39
2018-10-21T00:03:26.885Z,10.48
2018-10-21T00:04:26.860Z,10.39
2018-10-21T00:05:26.831Z,10.39
2018-10-21T00:06:26.808Z,10.48
2018-10-21T00:07:26.773Z,10.39
2018-10-21T00:08:26.752Z,10.68
2018-10-21T00:09:26.726Z,10.58
2018-10-21T00:10:26.693Z,10.48
2018-10-21T00:11:26.662Z,10.39
2018-10-21T00:12:26.636Z,10.68
2018-10-21T00:13:26.610Z,10.20
2018-10-21T00:14:26.580Z,10.39
2018-10-21T00:15:26.752Z,10.48
2018-10-21T00:16:26.524Z,10.39
2018-10-21T00:17:26.496Z,10.20
2018-10-21T00:18:26.466Z,10.20
2018-10-21T00:19:26.442Z,10.20
2018-10-21T00:20:26.411Z,10.29
2018-10-21T00:21:26.384Z,10.29
2018-10-21T00:22:26.361Z,10.29
2018-10-21T00:23:26.330Z,10.29
2018-10-21T00:24:26.300Z,10.29
2018-10-21T00:25:26.272Z,10.29
2018-10-21T00:26:26.242Z,10.10
2018-10-21T00:27:26.219Z,9.63
2018-10-21T00:28:26.188Z,9.63
2018-10-21T00:29:26.160Z,10.00
2018-10-21T00:30:26.132Z,9.91
2018-10-21T00:31:26.104Z,9.63
2018-10-21T00:32:26.076Z,9.53
2018-10-21T00:33:26.058Z,9.44
2018-10-21T00:34:26.023Z,9.44
2018-10-21T00:35:26.001Z,9.53
2018-10-21T00:36:25.969Z,9.63
2018-10-21T00:37:25.937Z,9.24
2018-10-21T00:38:25.912Z,8.96
2018-10-21T00:39:25.881Z,8.96
2018-10-21T00:40:25.854Z,8.96
2018-10-21T00:41:25.832Z,9.05
2018-10-21T00:42:25.799Z,8.76
2018-10-21T00:43:25.771Z,8.86
2018-10-21T00:44:25.744Z,8.58
2018-10-21T00:45:25.717Z,8.67
2018-10-21T00:46:25.692Z,8.20
2018-10-21T00:47:25.661Z,8.39
2018-10-21T00:48:25.643Z,8.48
2018-10-21T00:49:25.607Z,8.67
2018-10-21T00:50:25.578Z,8.20
2018-10-21T00:51:25.548Z,8.48
2018-10-21T00:52:25.520Z,8.29
2018-10-21T00:53:25.494Z,8.48
2018-10-21T00:54:25.469Z,8.39
2018-10-21T00:55:25.442Z,8.00
2018-10-21T00:56:25.410Z,8.10
2018-10-21T00:57:25.382Z,8.01
2018-10-21T00:58:25.357Z,8.29
2018-10-21T00:59:25.329Z,8.29
2018-10-21T01:00:25.298Z,8.48
2018-10-21T01:01:25.273Z,8.39
2018-10-21T01:02:25.241Z,8.48
2018-10-21T01:03:25.229Z,8.29
2018-10-21T01:04:25.187Z,8.39
2018-10-21T01:05:25.169Z,8.29
2018-10-21T01:06:25.169Z,8.39
2018-10-21T01:07:25.106Z,8.29
2018-10-21T01:08:25.078Z,8.20
2018-10-21T01:09:25.049Z,8.29
2018-10-21T01:10:25.021Z,8.29
2018-10-21T01:11:24.992Z,8.20
2018-10-21T01:12:24.966Z,8.20
2018-10-21T01:13:24.940Z,8.20
2018-10-21T01:14:24.913Z,8.48
2018-10-21T01:15:24.889Z,8.48
2018-10-21T01:16:24.863Z,8.11
2018-10-21T01:17:24.829Z,8.29
2018-10-21T01:18:24.801Z,8.67
2018-10-21T01:19:24.776Z,8.29
2018-10-21T01:20:24.746Z,8.29
2018-10-21T01:21:24.717Z,8.29
2018-10-21T01:22:24.687Z,8.48
2018-10-21T01:23:24.661Z,8.00
2018-10-21T01:24:24.632Z,8.00
2018-10-21T01:25:24.610Z,8.20
2018-10-21T01:26:24.585Z,7.71
2018-10-21T01:27:24.551Z,7.81
2018-10-21T01:28:24.524Z,8.00
2018-10-21T01:29:24.494Z,7.71
2018-10-21T01:30:24.466Z,7.71
2018-10-21T01:31:24.437Z,7.34
2018-10-21T01:32:24.410Z,7.34
2018-10-21T01:33:24.385Z,7.34
2018-10-21T01:34:24.354Z,7.43
2018-10-21T01:35:24.327Z,7.24
2018-10-21T01:36:24.682Z,7.15
2018-10-21T01:37:24.281Z,7.05
2018-10-21T01:38:24.258Z,7.05
2018-10-21T01:39:24.218Z,6.86
2018-10-21T01:40:24.192Z,6.76
2018-10-21T01:41:24.164Z,6.86
2018-10-21T01:42:24.136Z,6.67
2018-10-21T01:43:24.108Z,6.86
2018-10-21T01:44:24.078Z,6.76
2018-10-21T01:45:24.051Z,6.76
2018-10-21T01:46:24.022Z,6.29
2018-10-21T01:47:23.995Z,6.20
2018-10-21T01:48:23.966Z,6.48
2018-10-21T01:49:23.939Z,6.48
2018-10-21T01:50:23.908Z,6.48
2018-10-21T01:51:23.897Z,6.19
2018-10-21T01:52:23.913Z,6.57
2018-10-21T01:53:23.823Z,6.19
2018-10-21T01:54:23.796Z,6.29
2018-10-21T01:55:23.768Z,6.00
2018-10-21T01:56:23.740Z,6.19
2018-10-21T01:57:23.715Z,6.10
2018-10-21T01:58:23.685Z,5.81
2018-10-21T01:59:23.659Z,5.81
2018-10-21T02:00:23.630Z,5.81
2018-10-21T02:01:23.604Z,5.62
2018-10-21T02:02:23.571Z,5.24
2018-10-21T02:03:23.550Z,5.33
2018-10-21T02:04:23.520Z,5.33
2018-10-21T02:05:23.489Z,5.05
2018-10-21T02:06:23.463Z,4.95
2018-10-21T02:07:23.437Z,5.05
2018-10-21T02:08:23.407Z,4.95
2018-10-21T02:09:23.377Z,4.95
2018-10-21T02:10:23.345Z,4.57
2018-10-21T02:11:23.320Z,4.47
2018-10-21T02:12:23.294Z,4.57
2018-10-21T02:13:23.265Z,4.57
2018-10-21T02:14:23.237Z,4.38
2018-10-21T02:15:23.512Z,4.28
2018-10-21T02:16:23.180Z,4.19
2018-10-21T02:17:23.151Z,4.19
2018-10-21T02:18:23.125Z,4.19
2018-10-21T02:19:23.122Z,4.19
2018-10-21T02:20:23.068Z,4.10
2018-10-21T02:21:23.042Z,3.62
2018-10-21T02:22:23.211Z,3.72
2018-10-21T02:23:22.983Z,3.72
2018-10-21T02:24:22.953Z,3.62
2018-10-21T02:25:22.928Z,3.62
2018-10-21T02:26:23.019Z,3.43
2018-10-21T02:27:22.875Z,3.14
2018-10-21T02:28:22.846Z,3.14
2018-10-21T02:29:22.812Z,3.24
2018-10-21T02:30:22.783Z,3.14
2018-10-21T02:31:22.756Z,3.24
2018-10-21T02:32:22.727Z,3.24
2018-10-21T02:33:22.807Z,2.95
2018-10-21T02:34:22.671Z,3.14
2018-10-21T02:35:22.643Z,3.62
2018-10-21T02:36:22.617Z,3.62
2018-10-21T02:37:22.593Z,3.53
2018-10-21T02:38:22.762Z,3.62
2018-10-21T02:39:22.546Z,3.43
2018-10-21T02:40:22.505Z,3.43
2018-10-21T02:41:22.475Z,3.43
2018-10-21T02:42:22.647Z,3.33
2018-10-21T02:43:22.418Z,3.24
2018-10-21T02:44:22.391Z,3.62
2018-10-21T02:45:22.365Z,3.33
2018-10-21T02:46:22.337Z,3.72
2018-10-21T02:47:22.308Z,3.43
2018-10-21T02:48:22.485Z,3.53
2018-10-21T02:49:22.457Z,3.43
2018-10-21T02:50:23.039Z,3.53
2018-10-21T02:51:22.194Z,3.24
2018-10-21T02:52:22.178Z,2.95
2018-10-21T02:53:22.139Z,3.43
2018-10-21T02:54:22.110Z,3.24
2018-10-21T02:55:22.083Z,3.24
2018-10-21T02:56:22.062Z,3.05
2018-10-21T02:57:22.224Z,3.05
2018-10-21T02:58:22.000Z,2.86
2018-10-21T02:59:22.176Z,2.76
2018-10-21T03:00:21.945Z,2.86
2018-10-21T03:01:21.915Z,2.86
2018-10-21T03:02:21.888Z,2.95
2018-10-21T03:03:21.863Z,2.95
2018-10-21T03:04:22.033Z,2.57
2018-10-21T03:05:22.009Z,2.48
2018-10-21T03:06:21.789Z,2.57
2018-10-21T03:07:21.753Z,2.67
2018-10-21T03:08:21.722Z,2.76
2018-10-21T03:09:21.757Z,2.67
2018-10-21T03:10:21.665Z,2.48
2018-10-21T03:11:21.639Z,2.48
2018-10-21T03:12:21.612Z,2.57
2018-10-21T03:13:21.798Z,2.76
2018-10-21T03:14:21.551Z,2.67
2018-10-21T03:15:21.525Z,2.76
2018-10-21T03:16:21.496Z,2.67
2018-10-21T03:17:21.472Z,2.38
2018-10-21T03:18:21.478Z,2.67
2018-10-21T03:19:21.416Z,2.57
2018-10-21T03:20:21.385Z,2.48
2018-10-21T03:21:21.452Z,2.57
2018-10-21T03:22:21.328Z,2.57
2018-10-21T03:23:21.299Z,2.57
2018-10-21T03:24:21.273Z,2.57
2018-10-21T03:25:21.245Z,2.57
2018-10-21T03:26:21.217Z,2.67
2018-10-21T03:27:21.189Z,2.57
2018-10-21T03:28:21.161Z,2.57
2018-10-21T03:29:21.135Z,2.57
2018-10-21T03:30:21.108Z,2.38
2018-10-21T03:31:21.083Z,2.38
2018-10-21T03:32:21.052Z,2.48
2018-10-21T03:33:21.392Z,2.57
2018-10-21T03:34:20.993Z,2.48
2018-10-21T03:35:20.967Z,2.19
2018-10-21T03:36:20.937Z,2.09
2018-10-21T03:37:21.114Z,2.09
2018-10-21T03:39:03.323Z,2.00
2018-10-21T03:40:03.226Z,1.90
2018-10-21T03:41:02.974Z,2.00
2018-10-21T03:42:02.950Z,1.90
2018-10-21T03:43:03.124Z,2.09
2018-10-21T03:44:02.892Z,2.00
2018-10-21T03:45:45.212Z,1.62
2018-10-21T03:46:44.989Z,1.81
2018-10-21T03:47:44.961Z,1.62
2018-10-21T03:48:44.929Z,2.09
2018-10-21T03:49:44.900Z,2.09
2018-10-21T03:50:44.872Z,1.90
2018-10-21T03:51:44.844Z,1.62
2018-10-21T03:52:44.815Z,1.62
2018-10-21T03:53:44.793Z,1.33
2018-10-21T03:54:44.758Z,1.33
2018-10-21T03:55:44.734Z,1.53
2018-10-21T03:56:44.705Z,1.62
2018-10-21T03:57:44.678Z,1.62
2018-10-21T03:58:44.647Z,1.72
2018-10-21T03:59:44.625Z,1.53
2018-10-21T04:00:44.600Z,1.72
2018-10-21T04:01:44.569Z,1.43
2018-10-21T04:02:44.539Z,1.33
2018-10-21T04:03:44.510Z,1.43
2018-10-21T04:04:44.484Z,1.33
2018-10-21T04:05:44.460Z,1.33
2018-10-21T04:06:44.424Z,1.53
2018-10-21T04:07:44.396Z,1.62
2018-10-21T04:08:44.368Z,1.33
2018-10-21T04:09:44.345Z,1.72
2018-10-21T04:10:44.313Z,1.53
2018-10-21T04:11:44.285Z,1.53
2018-10-21T04:12:44.257Z,1.33
2018-10-21T04:13:44.228Z,1.14
2018-10-21T04:14:44.200Z,1.53
2018-10-21T04:15:44.172Z,1.43
2018-10-21T04:16:44.145Z,1.24
2018-10-21T04:17:44.119Z,1.33
2018-10-21T04:18:44.089Z,1.33
2018-10-21T04:19:44.263Z,1.33
2018-10-21T04:20:44.037Z,1.04
2018-10-21T04:21:44.209Z,1.14
2018-10-21T04:22:43.983Z,1.14
2018-10-21T04:23:43.955Z,1.33
2018-10-21T04:24:43.923Z,1.14
2018-10-21T04:25:43.894Z,1.33
2018-10-21T04:26:43.870Z,1.14
2018-10-21T04:27:43.837Z,1.24
2018-10-21T04:28:43.812Z,0.95
2018-10-21T04:29:43.784Z,0.95
2018-10-21T04:30:43.755Z,0.67
2018-10-21T04:31:43.729Z,0.48
2018-10-21T04:32:43.701Z,0.67
2018-10-21T04:33:43.677Z,0.67
2018-10-21T04:34:43.645Z,0.67
2018-10-21T04:35:43.617Z,0.85
2018-10-21T04:36:43.588Z,0.67
2018-10-21T04:37:43.567Z,0.67
2018-10-21T04:38:43.531Z,0.76
2018-10-21T04:39:43.504Z,0.67
2018-10-21T04:40:43.479Z,0.67
2018-10-21T04:41:43.455Z,0.85
2018-10-21T04:42:43.426Z,0.57
2018-10-21T04:43:43.596Z,0.76
2018-10-21T04:44:43.567Z,0.57
2018-10-21T04:45:43.337Z,0.85
2018-10-21T04:46:43.447Z,0.67
2018-10-21T04:47:43.281Z,0.67
2018-10-21T04:48:43.256Z,0.67
2018-10-21T04:49:43.228Z,0.67
2018-10-21T04:50:43.198Z,0.57
2018-10-21T04:51:43.172Z,0.57
2018-10-21T04:52:43.143Z,0.67
2018-10-21T04:53:43.115Z,0.76
2018-10-21T04:54:43.087Z,0.57
2018-10-21T04:55:43.059Z,0.67
2018-10-21T04:56:43.037Z,0.57
2018-10-21T04:57:43.005Z,0.67
2018-10-21T04:58:42.976Z,0.67
2018-10-21T04:59:42.949Z,0.48
2018-10-21T05:00:43.018Z,0.48
2018-10-21T05:01:42.898Z,0.67
2018-10-21T05:02:42.864Z,0.57
2018-10-21T05:03:42.841Z,0.57
2018-10-21T05:04:42.808Z,0.76
2018-10-21T05:05:42.779Z,0.76
2018-10-21T05:06:42.955Z,0.67
2018-10-21T05:07:42.859Z,0.76
2018-10-21T05:08:42.700Z,0.76
2018-10-21T05:09:42.672Z,0.57
2018-10-21T05:10:42.647Z,0.67
2018-10-21T05:11:42.614Z,0.67
2018-10-21T05:12:42.587Z,0.67
2018-10-21T05:13:42.563Z,0.67
2018-10-21T05:14:42.529Z,0.67
2018-10-21T05:15:42.503Z,0.48
2018-10-21T05:16:42.498Z,0.48
2018-10-21T05:17:42.454Z,0.48
2018-10-21T05:18:42.431Z,0.48
2018-10-21T05:19:42.394Z,0.48
2018-10-21T05:20:42.370Z,0.38
2018-10-21T05:21:42.339Z,0.57
2018-10-21T05:22:42.309Z,0.38
2018-10-21T05:23:42.284Z,0.38
2018-10-21T05:24:42.252Z,0.28
2018-10-21T05:25:42.226Z,0.48
2018-10-21T05:26:42.198Z,0.48
2018-10-21T05:27:42.174Z,0.57
2018-10-21T05:28:42.145Z,0.28
2018-10-21T05:29:42.117Z,0.48
2018-10-21T05:30:42.088Z,0.57
2018-10-21T05:31:42.065Z,0.57
2018-10-21T05:32:42.031Z,0.57
2018-10-21T05:33:42.006Z,0.67
2018-10-21T05:34:41.985Z,0.76
2018-10-21T05:35:41.964Z,0.67
2018-10-21T05:36:41.922Z,0.67
2018-10-21T05:37:41.897Z,0.57
2018-10-21T05:38:41.871Z,0.95
2018-10-21T05:39:41.840Z,0.95
2018-10-21T05:40:41.926Z,1.04
2018-10-21T05:41:41.886Z,1.14
2018-10-21T05:42:41.757Z,1.33
2018-10-21T05:43:41.736Z,1.33
2018-10-21T05:44:41.700Z,1.33
2018-10-21T05:45:41.672Z,1.33
2018-10-21T05:46:41.677Z,1.24
2018-10-21T05:47:41.620Z,1.33
2018-10-21T05:48:41.592Z,1.24
2018-10-21T05:49:41.563Z,1.14
2018-10-21T05:50:41.538Z,1.33
2018-10-21T05:51:41.513Z,0.85
2018-10-21T05:52:41.479Z,1.04
2018-10-21T05:53:41.452Z,1.04
2018-10-21T05:54:41.427Z,1.14
2018-10-21T05:55:41.401Z,1.04
2018-10-21T05:56:41.367Z,0.57
2018-10-21T05:57:41.341Z,0.76
2018-10-21T05:58:41.310Z,0.76
2018-10-21T05:59:41.286Z,0.57
2018-10-21T06:00:41.258Z,0.48
2018-10-21T06:01:41.233Z,0.76
2018-10-21T06:02:41.241Z,0.28
2018-10-21T06:03:41.175Z,0.57
2018-10-21T06:04:41.156Z,0.67
2018-10-21T06:05:41.117Z,0.67
2018-10-21T06:06:41.095Z,0.48
2018-10-21T06:07:41.062Z,0.57
2018-10-21T06:08:41.033Z,0.57
2018-10-21T06:09:41.006Z,0.38
2018-10-21T06:10:40.978Z,0.76
2018-10-21T06:11:41.002Z,0.48
2018-10-21T06:12:40.925Z,0.48
2018-10-21T06:13:40.897Z,0.57
2018-10-21T06:14:40.868Z,0.38
2018-10-21T06:15:40.871Z,0.19
2018-10-21T06:16:40.810Z,0.09
2018-10-21T06:17:40.784Z,0.00
2018-10-21T06:18:40.756Z,0.09
2018-10-21T06:19:40.731Z,0.09
2018-10-21T06:20:40.702Z,0.00
2018-10-21T06:21:40.673Z,0.00
2018-10-21T06:22:40.645Z,0.00
2018-10-21T06:23:40.674Z,0.00
2018-10-21T06:24:40.590Z,0.00
2018-10-21T06:25:40.564Z,0.00
2018-10-21T06:26:40.537Z,0.00
2018-10-21T06:27:40.524Z,0.00
2018-10-21T06:28:40.481Z,0.00
2018-10-21T06:29:40.453Z,0.00
2018-10-21T06:30:40.430Z,0.00
2018-10-21T06:31:40.393Z,0.00
2018-10-21T06:32:40.367Z,0.00
2018-10-21T06:33:40.498Z,0.00
2018-10-21T06:34:40.311Z,0.00
2018-10-21T06:35:40.283Z,0.00
2018-10-21T06:36:40.277Z,0.00
2018-10-21T06:37:40.255Z,0.00
2018-10-21T06:38:40.196Z,0.00
2018-10-21T06:39:40.170Z,0.00
2018-10-21T06:40:40.142Z,0.00
2018-10-21T06:41:40.117Z,0.00
2018-10-21T06:42:40.089Z,0.00
2018-10-21T06:43:40.058Z,0.00
2018-10-21T06:44:40.033Z,0.00
2018-10-21T06:45:40.046Z,0.00
2018-10-21T06:46:39.977Z,0.00
2018-10-21T06:47:39.952Z,0.00
2018-10-21T06:48:39.923Z,0.00
2018-10-21T06:49:39.891Z,0.00
2018-10-21T06:50:39.863Z,0.00
2018-10-21T06:51:39.836Z,0.00
2018-10-21T06:52:39.810Z,0.00
2018-10-21T06:53:39.783Z,0.00
2018-10-21T06:54:39.757Z,0.00
2018-10-21T06:55:39.727Z,0.00
2018-10-21T06:56:39.940Z,0.00
2018-10-21T06:57:39.720Z,0.00
2018-10-21T06:58:39.642Z,0.00
2018-10-21T06:59:39.615Z,0.00
2018-10-21T07:00:39.589Z,0.00
2018-10-21T07:01:39.562Z,0.00
2018-10-21T07:02:39.533Z,0.00
2018-10-21T07:03:39.504Z,0.00
2018-10-21T07:04:39.651Z,0.00
2018-10-21T07:05:39.454Z,0.00
2018-10-21T07:06:39.422Z,0.00
2018-10-21T07:07:39.393Z,0.00
2018-10-21T07:08:39.367Z,0.00
2018-10-21T07:09:39.340Z,0.00
2018-10-21T07:10:39.311Z,0.00
2018-10-21T07:11:39.283Z,0.00
2018-10-21T07:12:39.257Z,0.00
2018-10-21T07:13:39.228Z,0.00
2018-10-21T07:14:39.200Z,0.00
2018-10-21T07:15:39.268Z,0.00
2018-10-21T07:16:39.354Z,0.00
2018-10-21T07:17:39.117Z,0.00
2018-10-21T07:18:39.089Z,0.00
2018-10-21T07:19:39.064Z,0.00
2018-10-21T07:20:39.036Z,0.00
2018-10-21T07:21:39.009Z,0.00
2018-10-21T07:22:38.980Z,0.00
2018-10-21T07:23:38.955Z,0.00
2018-10-21T07:24:38.924Z,0.00
2018-10-21T07:25:38.897Z,0.00
2018-10-21T07:26:38.869Z,0.00
2018-10-21T07:27:38.842Z,0.00
2018-10-21T07:28:38.899Z,0.00
2018-10-21T07:29:38.788Z,0.00
2018-10-21T07:30:38.760Z,0.00
2018-10-21T07:31:38.733Z,0.00
2018-10-21T07:32:38.709Z,0.00
2018-10-21T07:33:38.682Z,0.00
2018-10-21T07:34:38.653Z,0.00
2018-10-21T07:35:38.626Z,0.57
2018-10-21T07:36:38.601Z,0.95
2018-10-21T07:37:38.573Z,0.85
2018-10-21T07:38:38.545Z,1.33
2018-10-21T07:39:38.516Z,1.62
2018-10-21T07:40:38.490Z,2.19
2018-10-21T07:41:38.469Z,2.86
2018-10-21T07:42:38.437Z,2.76
2018-10-21T07:43:38.409Z,3.34
2018-10-21T07:44:38.399Z,3.81
2018-10-21T07:45:38.356Z,4.20
2018-10-21T07:46:38.329Z,4.39
2018-10-21T07:47:38.303Z,5.63
2018-10-21T07:48:38.274Z,5.82
2018-10-21T07:49:38.249Z,6.96
2018-10-21T07:50:38.221Z,6.77
2018-10-21T07:51:38.397Z,6.77
2018-10-21T07:52:38.179Z,6.96
2018-10-21T07:53:38.145Z,6.20
2018-10-21T07:54:38.116Z,6.20
2018-10-21T07:55:38.129Z,6.87
2018-10-21T07:56:38.063Z,6.49
2018-10-21T07:57:38.087Z,6.49
2018-10-21T07:58:38.010Z,7.25
2018-10-21T07:59:37.988Z,7.44
2018-10-21T08:00:37.957Z,7.73
2018-10-21T08:01:37.932Z,7.64
2018-10-21T08:02:37.904Z,7.92
2018-10-21T08:03:37.878Z,8.21
2018-10-21T08:04:37.888Z,8.40
2018-10-21T08:05:37.829Z,8.40
2018-10-21T08:06:37.802Z,8.78
2018-10-21T08:07:37.776Z,8.78
2018-10-21T08:08:37.807Z,8.87
2018-10-21T08:09:37.725Z,8.59
2018-10-21T08:10:37.695Z,8.21
2018-10-21T08:11:37.669Z,8.21
2018-10-21T08:12:37.645Z,8.78
2018-10-21T08:13:37.618Z,8.50
2018-10-21T08:14:37.628Z,8.40
2018-10-21T08:15:37.567Z,8.69
2018-10-21T08:16:37.541Z,9.07
2018-10-21T08:17:37.514Z,8.97
2018-10-21T08:18:37.491Z,9.55
2018-10-21T08:19:37.461Z,8.97
2018-10-21T08:20:37.435Z,9.17
2018-10-21T08:21:37.411Z,8.97
2018-10-21T08:22:37.381Z,8.87
2018-10-21T08:23:37.354Z,8.97
2018-10-21T08:24:37.330Z,9.07
2018-10-21T08:25:37.304Z,8.97
2018-10-21T08:26:37.276Z,9.17
2018-10-21T08:27:37.250Z,9.17
2018-10-21T08:28:37.222Z,10.03
2018-10-21T08:29:37.196Z,10.31
2018-10-21T08:30:37.171Z,11.36
2018-10-21T08:31:37.142Z,11.74
2018-10-21T08:32:37.117Z,11.74
2018-10-21T08:33:37.091Z,11.74
2018-10-21T08:34:37.065Z,11.84
2018-10-21T08:35:37.038Z,12.31
2018-10-21T08:36:37.017Z,11.46
2018-10-21T08:37:36.988Z,11.08
2018-10-21T08:38:37.011Z,11.08
2018-10-21T08:39:36.937Z,11.27
2018-10-21T08:40:36.911Z,11.46
2018-10-21T08:41:36.884Z,11.55
2018-10-21T08:42:36.855Z,11.36
2018-10-21T08:43:36.829Z,11.36
2018-10-21T08:44:36.807Z,11.27
2018-10-21T08:45:36.786Z,11.94
2018-10-21T08:46:36.779Z,11.46
2018-10-21T08:47:36.726Z,10.50
2018-10-21T08:48:36.706Z,10.60
2018-10-21T08:49:36.674Z,10.79
2018-10-21T08:50:36.646Z,11.27
2018-10-21T08:51:36.630Z,11.27
2018-10-21T08:52:36.593Z,11.36
2018-10-21T08:53:36.567Z,12.13
2018-10-21T08:54:36.542Z,12.51
2018-10-21T08:55:36.515Z,13.37
2018-10-21T08:56:36.492Z,13.85
2018-10-21T08:57:36.465Z,14.04
2018-10-21T08:58:36.438Z,13.94
2018-10-21T08:59:36.412Z,13.94
2018-10-21T09:00:36.387Z,14.42
2018-10-21T09:01:36.359Z,14.33
2018-10-21T09:02:36.332Z,14.90
2018-10-21T09:03:36.309Z,15.86
2018-10-21T09:04:36.282Z,15.86
2018-10-21T09:05:36.257Z,16.72
2018-10-21T09:06:36.230Z,16.91
2018-10-21T09:07:36.203Z,17.86
2018-10-21T09:08:36.176Z,18.63
2018-10-21T09:09:36.156Z,18.82
2018-10-21T09:10:36.363Z,18.82
2018-10-21T09:11:36.102Z,19.40
2018-10-21T09:12:36.073Z,19.68
2018-10-21T09:13:36.049Z,19.20
2018-10-21T09:14:36.031Z,17.86
2018-10-21T09:15:36.034Z,17.00
2018-10-21T09:16:36.031Z,19.68
2018-10-21T09:17:35.946Z,20.45
2018-10-21T09:18:35.969Z,21.12
2018-10-21T09:19:35.894Z,19.97
2018-10-21T09:20:35.866Z,19.60
2018-10-21T09:21:35.840Z,20.07
2018-10-21T09:22:35.814Z,21.61
2018-10-21T09:23:35.797Z,23.42
2018-10-21T09:24:35.765Z,24.38
2018-10-21T09:25:35.739Z,25.04
2018-10-21T09:26:35.717Z,24.38
2018-10-21T09:27:35.690Z,24.85
2018-10-21T09:28:35.681Z,23.23
2018-10-21T09:29:35.637Z,23.71
2018-10-21T09:30:35.611Z,24.28
2018-10-21T09:31:35.588Z,25.52
2018-10-21T09:32:35.563Z,26.48
2018-10-21T09:33:35.539Z,26.67
2018-10-21T09:34:35.514Z,25.81
2018-10-21T09:35:35.492Z,26.29
2018-10-21T09:36:35.461Z,27.34
2018-10-21T09:37:35.438Z,26.48
2018-10-21T09:38:35.412Z,24.76
2018-10-21T09:39:35.387Z,25.71
2018-10-21T09:40:35.368Z,25.90
2018-10-21T09:41:35.339Z,26.39
2018-10-21T09:42:35.309Z,26.39
2018-10-21T09:43:35.285Z,27.72
2018-10-21T09:44:35.261Z,28.20
2018-10-21T09:45:35.237Z,28.01
2018-10-21T09:46:35.214Z,28.87
2018-10-21T09:47:35.189Z,29.65
2018-10-21T09:48:35.160Z,29.54
2018-10-21T09:49:35.137Z,29.36
2018-10-21T09:50:35.108Z,29.73
2018-10-21T09:51:35.085Z,29.44
2018-10-21T09:52:35.067Z,29.27
2018-10-21T09:53:35.036Z,29.27
2018-10-21T09:54:35.020Z,28.68
2018-10-21T09:55:34.986Z,28.97
2018-10-21T09:56:34.963Z,28.41
2018-10-21T09:57:34.941Z,31.47
2018-10-21T09:58:35.081Z,32.90
2018-10-21T09:59:34.888Z,32.23
2018-10-21T10:00:34.865Z,32.90
2018-10-21T10:01:34.842Z,35.49
2018-10-21T10:02:34.812Z,35.28
2018-10-21T10:03:34.788Z,34.24
2018-10-21T10:04:34.766Z,34.81
2018-10-21T10:05:34.741Z,36.15
2018-10-21T10:06:34.716Z,36.35
2018-10-21T10:07:34.694Z,37.11
2018-10-21T10:08:34.667Z,39.22
2018-10-21T10:09:34.642Z,37.59
2018-10-21T10:10:34.618Z,38.26
2018-10-21T10:11:34.593Z,37.30
2018-10-21T10:12:34.571Z,40.17
2018-10-21T10:13:34.547Z,40.26
2018-10-21T10:14:34.525Z,40.36
2018-10-21T10:15:34.500Z,41.61
2018-10-21T10:16:34.483Z,44.38
2018-10-21T10:17:34.534Z,43.80
2018-10-21T10:18:34.422Z,44.95
2018-10-21T10:19:34.400Z,45.62
2018-10-21T10:20:34.374Z,47.94
2018-10-21T10:21:34.350Z,54.07
2018-10-21T10:22:34.325Z,51.58
2018-10-21T10:23:34.389Z,50.21
2018-10-21T10:24:34.277Z,48.11
2018-10-21T10:25:34.253Z,45.05
2018-10-21T10:26:34.232Z,46.39
2018-10-21T10:27:34.208Z,46.01
2018-10-21T10:28:34.182Z,47.34
2018-10-21T10:29:34.162Z,47.25
2018-10-21T10:30:34.212Z,46.96
2018-10-21T10:31:34.117Z,48.78
2018-10-21T10:32:34.084Z,48.21
2018-10-21T10:33:34.060Z,50.12
2018-10-21T10:34:34.038Z,49.35
2018-10-21T10:35:34.013Z,52.61
2018-10-21T10:36:33.991Z,51.75
2018-10-21T10:37:33.967Z,50.02
2018-10-21T10:38:33.942Z,50.98
2018-10-21T10:39:33.919Z,50.43
2018-10-21T10:40:33.899Z,52.73
2018-10-21T10:41:33.912Z,51.93
2018-10-21T10:42:33.847Z,50.98
2018-10-21T10:43:33.827Z,48.59
2018-10-21T10:44:33.797Z,49.74
2018-10-21T10:45:33.786Z,48.59
2018-10-21T10:46:33.761Z,49.74
2018-10-21T10:47:33.724Z,47.63
2018-10-21T10:48:33.706Z,47.06
2018-10-21T10:49:33.679Z,46.87
2018-10-21T10:50:33.656Z,46.77
2018-10-21T10:51:33.632Z,46.48
2018-10-21T10:52:33.606Z,47.82
2018-10-21T10:53:33.582Z,46.67
2018-10-21T10:54:33.558Z,44.95
2018-10-21T10:55:33.535Z,44.76
2018-10-21T10:56:33.511Z,47.44
2018-10-21T10:57:33.486Z,46.01
2018-10-21T10:58:33.460Z,47.06
2018-10-21T10:59:33.521Z,47.34
2018-10-21T11:00:33.415Z,47.16
2018-10-21T11:01:33.391Z,48.02
2018-10-21T11:02:33.366Z,49.95
2018-10-21T11:03:33.343Z,50.12
2018-10-21T11:04:33.316Z,52.22
2018-10-21T11:05:33.292Z,50.15
2018-10-21T11:06:33.277Z,54.07
2018-10-21T11:07:33.245Z,56.27
2018-10-21T11:08:33.222Z,58.31
2018-10-21T11:09:33.199Z,61.18
2018-10-21T11:10:33.376Z,61.08
2018-10-21T11:11:33.350Z,60.41
2018-10-21T11:12:33.326Z,61.57
2018-10-21T11:13:33.108Z,65.33
2018-10-21T11:14:33.136Z,68.87
2018-10-21T11:15:33.254Z,68.30
2018-10-21T11:16:33.033Z,68.01
2018-10-21T11:17:33.009Z,66.93
2018-10-21T11:18:32.984Z,68.46
2018-10-21T11:19:32.965Z,67.72
2018-10-21T11:20:32.937Z,69.93
2018-10-21T11:21:32.917Z,67.41
2018-10-21T11:22:32.898Z,66.45
2018-10-21T11:23:32.868Z,66.74
2018-10-21T11:24:32.847Z,66.35
2018-10-21T11:25:32.823Z,67.34
2018-10-21T11:26:32.799Z,68.17
2018-10-21T11:27:32.779Z,67.50
2018-10-21T11:28:32.755Z,66.35
2018-10-21T11:29:32.732Z,62.90
2018-10-21T11:30:32.708Z,70.41
2018-10-21T11:31:32.692Z,69.54
2018-10-21T11:32:32.662Z,69.07
2018-10-21T11:33:32.636Z,69.93
2018-10-21T11:34:32.614Z,71.23
2018-10-21T11:35:32.591Z,68.74
2018-10-21T11:36:32.581Z,67.98
2018-10-21T11:37:32.712Z,67.69
2018-10-21T11:38:32.523Z,68.94
2018-10-21T11:39:32.500Z,66.74
2018-10-21T11:40:32.475Z,68.21
2018-10-21T11:41:32.452Z,73.76
2018-10-21T11:42:32.427Z,71.08
2018-10-21T11:43:32.405Z,71.08
2018-10-21T11:44:32.383Z,72.13
2018-10-21T11:45:32.400Z,70.21
2018-10-21T11:46:32.450Z,70.18
2018-10-21T11:47:32.312Z,67.69
2018-10-21T11:48:32.292Z,66.83
2018-10-21T11:49:32.269Z,66.83
2018-10-21T11:50:32.244Z,66.64
2018-10-21T11:51:32.221Z,66.16
2018-10-21T11:52:32.212Z,66.64
2018-10-21T11:53:32.174Z,65.58
2018-10-21T11:54:32.149Z,67.05
2018-10-21T11:55:32.126Z,67.79
2018-10-21T11:56:32.105Z,67.05
2018-10-21T11:57:32.080Z,66.54
2018-10-21T11:58:32.056Z,66.83
2018-10-21T11:59:32.034Z,67.02
2018-10-21T12:00:32.010Z,65.49
2018-10-21T12:01:31.998Z,66.93
2018-10-21T12:02:31.963Z,68.55
2018-10-21T12:03:31.941Z,66.54
2018-10-21T12:04:31.917Z,68.84
2018-10-21T12:05:31.893Z,67.98
2018-10-21T12:06:31.869Z,70.37
2018-10-21T12:07:31.844Z,73.57
2018-10-21T12:08:31.827Z,74.33
2018-10-21T12:09:31.799Z,74.62
2018-10-21T12:10:31.775Z,73.57
2018-10-21T12:11:31.750Z,77.02
2018-10-21T12:12:31.726Z,77.21
2018-10-21T12:13:31.704Z,75.87
2018-10-21T12:14:31.678Z,75.29
2018-10-21T12:15:31.670Z,76.15
2018-10-21T12:16:31.634Z,78.27
2018-10-21T12:17:31.610Z,78.36
2018-10-21T12:18:31.591Z,78.55
2018-10-21T12:19:31.569Z,79.13
2018-10-21T12:20:31.539Z,79.70
2018-10-21T12:21:31.515Z,81.13
2018-10-21T12:22:31.545Z,79.70
2018-10-21T12:23:31.519Z,81.23
2018-10-21T12:24:31.447Z,80.56
2018-10-21T12:25:31.447Z,81.90
2018-10-21T12:26:31.398Z,82.38
2018-10-21T12:27:31.377Z,81.33
2018-10-21T12:28:31.352Z,81.23
2018-10-21T12:29:31.330Z,81.90
2018-10-21T12:30:31.307Z,81.33
2018-10-21T12:31:31.281Z,81.52
2018-10-21T12:32:31.261Z,82.29
2018-10-21T12:33:31.236Z,81.81
2018-10-21T12:34:31.212Z,81.90
2018-10-21T12:35:31.193Z,80.66
2018-10-21T12:36:31.168Z,80.47
2018-10-21T12:37:31.148Z,80.33
2018-10-21T12:38:31.121Z,81.10
2018-10-21T12:39:31.098Z,79.70
2018-10-21T12:40:31.076Z,80.62
2018-10-21T12:41:31.050Z,79.75
2018-10-21T12:42:31.025Z,79.57
2018-10-21T12:43:31.004Z,79.75
2018-10-21T12:44:30.985Z,81.52
2018-10-21T12:45:31.089Z,80.18
2018-10-21T12:46:30.934Z,80.66
2018-10-21T12:47:30.910Z,79.89
2018-10-21T12:48:30.887Z,79.89
2018-10-21T12:49:31.163Z,79.89
2018-10-21T12:50:30.841Z,79.99
2018-10-21T12:51:30.816Z,80.37
2018-10-21T12:52:30.791Z,80.71
2018-10-21T12:53:30.767Z,79.80
2018-10-21T12:54:30.807Z,79.57
2018-10-21T12:55:30.719Z,80.81
2018-10-21T12:56:30.697Z,79.22
2018-10-21T12:57:30.674Z,80.33
2018-10-21T12:58:30.652Z,80.56
2018-10-21T12:59:30.626Z,79.99
2018-10-21T13:00:30.600Z,79.51
2018-10-21T13:01:30.577Z,79.47
2018-10-21T13:02:30.552Z,81.67
2018-10-21T13:03:30.528Z,79.13
2018-10-21T13:04:30.507Z,81.20
2018-10-21T13:05:30.480Z,79.66
2018-10-21T13:06:30.455Z,80.24
2018-10-21T13:07:30.432Z,80.14
2018-10-21T13:08:30.410Z,79.75
2018-10-21T13:09:30.387Z,78.42